Time;durP1;ratioP1;P1;durP2;ratioP2;P2;SDS_P1;SDS_P2;PMS_P1;PMS_P2;Temp;Humidity;BMP_temperature;BMP_pressure;BME280_temperature;BME280_humidity;BME280_pressure;Samples;Min_cycle;Max_cycle;Signal;HPM_P1;HPM_P2
2024/01/12 00:01:52;;;;;;;17.83;7.30;;;;;;;;;;5070691;28;20037;-58
2024/01/12 00:04:17;;;;;;;22.00;8.50;;;;;;;;;;5067267;28;20017;-59
2024/01/12 00:06:42;;;;;;;20.23;7.45;;;;;;;;;;5070779;28;20027;-58
2024/01/12 00:09:08;;;;;;;21.88;8.75;;;;;;;;;;5065347;28;20013;-58
2024/01/12 00:11:33;;;;;;;20.35;7.95;;;;;;;;;;5051157;28;20056;-59
2024/01/12 00:13:58;;;;;;;21.63;7.93;;;;;;;;;;5051315;28;20469;-59
2024/01/12 00:16:23;;;;;;;23.75;7.82;;;;;;;;;;5064217;28;20017;-59
2024/01/12 00:18:48;;;;;;;19.77;8.00;;;;;;;;;;5071960;28;20082;-59
2024/01/12 00:21:14;;;;;;;20.08;8.43;;;;;;;;;;5076643;28;20670;-59
2024/01/12 00:23:39;;;;;;;19.75;7.70;;;;;;;;;;5077731;28;20028;-59
2024/01/12 00:26:04;;;;;;;19.13;7.83;;;;;;;;;;5070486;28;20032;-58
2024/01/12 00:28:30;;;;;;;18.85;7.82;;;;;;;;;;5070449;28;20020;-59
2024/01/12 00:30:55;;;;;;;19.60;7.82;;;;;;;;;;5068759;28;20139;-58
2024/01/12 00:33:21;;;;;;;20.35;7.72;;;;;;;;;;5069395;28;20104;-58
2024/01/12 00:35:46;;;;;;;19.43;7.70;;;;;;;;;;5069989;28;20044;-59
2024/01/12 00:38:11;;;;;;;18.57;7.47;;;;;;;;;;5063521;28;20450;-57
2024/01/12 00:40:36;;;;;;;19.90;7.60;;;;;;;;;;5067586;28;20024;-58
2024/01/12 00:43:02;;;;;;;20.33;7.80;;;;;;;;;;5069208;28;20024;-59
2024/01/12 00:45:27;;;;;;;19.73;7.37;;;;;;;;;;5068642;28;20536;-59
2024/01/12 00:47:52;;;;;;;23.80;8.30;;;;;;;;;;5069289;28;20033;-59
2024/01/12 00:50:17;;;;;;;20.13;7.53;;;;;;;;;;5069341;28;20020;-60
2024/01/12 00:52:42;;;;;;;19.13;7.67;;;;;;;;;;5069146;28;20031;-59
2024/01/12 00:55:08;;;;;;;17.30;7.43;;;;;;;;;;5068215;28;20019;-58
2024/01/12 00:57:33;;;;;;;20.20;7.90;;;;;;;;;;5068266;28;20328;-59
2024/01/12 00:59:58;;;;;;;21.75;8.00;;;;;;;;;;5069467;28;20013;-60
2024/01/12 01:02:23;;;;;;;23.73;8.57;;;;;;;;;;5069107;28;20384;-59
2024/01/12 01:04:48;;;;;;;23.40;7.95;;;;;;;;;;5069329;28;20074;-59
2024/01/12 01:07:13;;;;;;;19.30;7.60;;;;;;;;;;5069344;28;20046;-59
2024/01/12 01:09:39;;;;;;;20.70;7.63;;;;;;;;;;5064120;28;20417;-59
2024/01/12 01:12:05;;;;;;;18.13;7.10;;;;;;;;;;5055157;28;20532;-59
2024/01/12 01:14:30;;;;;;;18.50;7.18;;;;;;;;;;5063963;28;20357;-60
2024/01/12 01:16:55;;;;;;;19.40;7.40;;;;;;;;;;5064735;28;20036;-59
2024/01/12 01:19:20;;;;;;;21.07;8.20;;;;;;;;;;5061732;28;20094;-60
2024/01/12 01:21:45;;;;;;;20.87;7.37;;;;;;;;;;5068661;28;20032;-58
2024/01/12 01:24:11;;;;;;;19.93;7.90;;;;;;;;;;5030612;28;999570;-58
2024/01/12 01:26:36;;;;;;;19.17;7.35;;;;;;;;;;5069927;28;20036;-58
2024/01/12 01:29:01;;;;;;;18.00;7.30;;;;;;;;;;5070252;28;20095;-58
2024/01/12 01:31:26;;;;;;;17.93;7.60;;;;;;;;;;5069401;28;20442;-59
2024/01/12 01:33:51;;;;;;;18.38;7.10;;;;;;;;;;5069919;28;20028;-59
2024/01/12 01:36:16;;;;;;;21.95;7.57;;;;;;;;;;5069642;28;20027;-58
2024/01/12 01:38:42;;;;;;;19.40;7.80;;;;;;;;;;5068817;28;20493;-58
2024/01/12 01:41:07;;;;;;;19.27;8.27;;;;;;;;;;5069552;28;20024;-59
2024/01/12 01:43:32;;;;;;;20.67;8.63;;;;;;;;;;5069364;28;20443;-59
2024/01/12 01:45:57;;;;;;;18.08;6.57;;;;;;;;;;5064033;28;20029;-59
2024/01/12 01:48:23;;;;;;;17.73;7.90;;;;;;;;;;5049842;28;20152;-59
2024/01/12 01:50:48;;;;;;;19.13;7.70;;;;;;;;;;5051196;28;20087;-60
2024/01/12 01:53:13;;;;;;;15.47;6.40;;;;;;;;;;5069099;28;20028;-59
2024/01/12 01:55:38;;;;;;;18.63;7.13;;;;;;;;;;5069399;28;20086;-58
2024/01/12 01:58:04;;;;;;;16.97;6.73;;;;;;;;;;5069292;28;20456;-59
2024/01/12 02:00:30;;;;;;;15.25;6.15;;;;;;;;;;5069858;28;20016;-59
2024/01/12 02:02:55;;;;;;;17.15;7.00;;;;;;;;;;5069071;28;20079;-59
2024/01/12 02:05:21;;;;;;;18.85;7.32;;;;;;;;;;5070247;28;20020;-59
2024/01/12 02:07:46;;;;;;;16.35;6.85;;;;;;;;;;5069921;28;20496;-59
2024/01/12 02:10:11;;;;;;;16.15;6.20;;;;;;;;;;5069937;28;20020;-60
2024/01/12 02:12:37;;;;;;;16.05;6.38;;;;;;;;;;5068986;28;20438;-58
2024/01/12 02:15:02;;;;;;;16.88;6.25;;;;;;;;;;5069528;28;20047;-58
2024/01/12 02:17:27;;;;;;;18.15;6.93;;;;;;;;;;5059860;28;20028;-57
2024/01/12 02:19:59;;;;;;;16.73;6.68;;;;;;;;;;5062514;28;20498;-60
2024/01/12 02:22:25;;;;;;;18.85;6.53;;;;;;;;;;5068608;28;20059;-60
2024/01/12 02:24:50;;;;;;;14.90;6.45;;;;;;;;;;5071506;28;20077;-59
2024/01/12 02:27:15;;;;;;;17.13;6.85;;;;;;;;;;5073819;28;20012;-58
2024/01/12 02:29:40;;;;;;;16.70;6.73;;;;;;;;;;5073960;28;20028;-57
2024/01/12 02:32:06;;;;;;;17.93;6.63;;;;;;;;;;5073200;28;20012;-57
2024/01/12 02:34:31;;;;;;;16.90;7.10;;;;;;;;;;5071516;28;20024;-58
2024/01/12 02:36:56;;;;;;;16.25;6.30;;;;;;;;;;5066252;28;20073;-59
2024/01/12 02:39:21;;;;;;;17.27;6.85;;;;;;;;;;5069070;28;20032;-58
2024/01/12 02:41:46;;;;;;;17.90;6.87;;;;;;;;;;5069956;28;20031;-59
2024/01/12 02:44:11;;;;;;;16.67;6.25;;;;;;;;;;5064729;28;20032;-58
2024/01/12 02:46:36;;;;;;;18.03;6.93;;;;;;;;;;5072720;28;20013;-59
2024/01/12 02:49:02;;;;;;;16.83;6.53;;;;;;;;;;5072704;28;20012;-58
2024/01/12 02:51:27;;;;;;;14.77;6.20;;;;;;;;;;5071790;28;20020;-59
2024/01/12 02:53:52;;;;;;;14.45;6.00;;;;;;;;;;5070148;28;20476;-59
2024/01/12 02:56:17;;;;;;;14.73;6.20;;;;;;;;;;5071316;28;20028;-59
2024/01/12 02:58:42;;;;;;;15.53;5.77;;;;;;;;;;5072487;28;20037;-59
2024/01/12 03:01:07;;;;;;;16.70;6.57;;;;;;;;;;5059514;28;20370;-59
2024/01/12 03:03:32;;;;;;;15.90;6.57;;;;;;;;;;5067949;28;20480;-59
2024/01/12 03:05:58;;;;;;;12.18;5.43;;;;;;;;;;5072467;28;20020;-59
2024/01/12 03:08:23;;;;;;;16.55;5.95;;;;;;;;;;5051689;28;20061;-59
2024/01/12 03:10:48;;;;;;;15.20;5.80;;;;;;;;;;5051847;28;20512;-58
2024/01/12 03:13:13;;;;;;;14.80;5.55;;;;;;;;;;5067869;28;20062;-59
2024/01/12 03:15:38;;;;;;;15.63;6.05;;;;;;;;;;5068779;28;20055;-59
2024/01/12 03:18:04;;;;;;;15.20;5.77;;;;;;;;;;5066044;28;20357;-59
2024/01/12 03:20:29;;;;;;;13.55;5.30;;;;;;;;;;5070433;28;20025;-59
2024/01/12 03:22:54;;;;;;;14.93;5.80;;;;;;;;;;5063585;28;20044;-58
2024/01/12 03:25:20;;;;;;;16.88;6.03;;;;;;;;;;5050302;28;20040;-58
2024/01/12 03:27:45;;;;;;;15.63;5.57;;;;;;;;;;5051754;28;20108;-60
2024/01/12 03:30:10;;;;;;;13.32;5.43;;;;;;;;;;5054987;28;20024;-59
2024/01/12 03:32:35;;;;;;;15.80;5.50;;;;;;;;;;5071099;28;20046;-59
2024/01/12 03:35:00;;;;;;;14.77;5.67;;;;;;;;;;5071006;28;20035;-58
2024/01/12 03:37:25;;;;;;;14.57;5.67;;;;;;;;;;5071051;28;20021;-59
2024/01/12 03:39:51;;;;;;;16.87;6.50;;;;;;;;;;5071542;28;20039;-59
2024/01/12 03:42:16;;;;;;;15.50;5.47;;;;;;;;;;5070932;28;20024;-59
2024/01/12 03:44:41;;;;;;;15.37;6.10;;;;;;;;;;5071251;28;20107;-58
2024/01/12 03:47:06;;;;;;;16.23;6.27;;;;;;;;;;5069620;28;20395;-59
2024/01/12 03:49:31;;;;;;;16.45;5.82;;;;;;;;;;5068656;28;20028;-59
2024/01/12 03:51:57;;;;;;;16.15;5.97;;;;;;;;;;5062446;28;20036;-59
2024/01/12 03:54:22;;;;;;;17.30;7.00;;;;;;;;;;5070894;28;20370;-59
2024/01/12 03:56:47;;;;;;;15.98;6.10;;;;;;;;;;5070861;28;20381;-58
2024/01/12 03:59:13;;;;;;;15.30;5.93;;;;;;;;;;5052246;28;20432;-58
2024/01/12 04:01:47;;;;;;;17.33;6.30;;;;;;;;;;5050759;28;20028;-58
2024/01/12 04:04:12;;;;;;;13.50;5.70;;;;;;;;;;5063923;28;20028;-59
2024/01/12 04:06:39;;;;;;;13.25;5.43;;;;;;;;;;5072617;28;20368;-59
2024/01/12 04:09:04;;;;;;;15.30;6.07;;;;;;;;;;5071023;28;20082;-58
2024/01/12 04:11:29;;;;;;;15.80;5.60;;;;;;;;;;5070713;28;20028;-57
2024/01/12 04:13:55;;;;;;;13.38;5.30;;;;;;;;;;5070839;28;20441;-58
2024/01/12 04:16:20;;;;;;;13.73;5.30;;;;;;;;;;5070921;28;20021;-58
2024/01/12 04:18:45;;;;;;;14.73;5.97;;;;;;;;;;5053291;28;20404;-59
2024/01/12 04:21:10;;;;;;;15.53;5.73;;;;;;;;;;5063231;28;20024;-58
2024/01/12 04:23:35;;;;;;;12.23;5.22;;;;;;;;;;5070304;28;20111;-58
2024/01/12 04:26:00;;;;;;;13.93;5.43;;;;;;;;;;5070472;28;20060;-58
2024/01/12 04:28:26;;;;;;;16.25;5.25;;;;;;;;;;5059993;28;20389;-58
2024/01/12 04:30:51;;;;;;;14.52;5.53;;;;;;;;;;5050741;28;20027;-57
2024/01/12 04:33:16;;;;;;;14.07;5.75;;;;;;;;;;5050376;28;20092;-58
2024/01/12 04:35:41;;;;;;;14.75;5.93;;;;;;;;;;5067676;28;20396;-59
2024/01/12 04:38:09;;;;;;;13.77;5.30;;;;;;;;;;5071072;28;20025;-59
2024/01/12 04:40:34;;;;;;;14.43;6.10;;;;;;;;;;5071002;28;20364;-58
2024/01/12 04:42:59;;;;;;;15.15;5.68;;;;;;;;;;5070320;28;20047;-58
2024/01/12 04:45:24;;;;;;;13.98;5.30;;;;;;;;;;5071961;28;20024;-59
2024/01/12 04:47:49;;;;;;;14.15;5.63;;;;;;;;;;5070458;28;20020;-59
2024/01/12 04:50:15;;;;;;;14.90;5.83;;;;;;;;;;5068911;28;20038;-59
2024/01/12 04:52:40;;;;;;;14.50;5.70;;;;;;;;;;5067042;28;20042;-58
2024/01/12 04:55:05;;;;;;;15.43;5.83;;;;;;;;;;5070268;28;20036;-58
2024/01/12 04:57:30;;;;;;;16.17;6.43;;;;;;;;;;5070441;28;20382;-58
2024/01/12 04:59:55;;;;;;;15.50;5.60;;;;;;;;;;5067739;28;20350;-58
2024/01/12 05:02:20;;;;;;;16.08;5.97;;;;;;;;;;5061661;28;20023;-58
2024/01/12 05:04:46;;;;;;;13.53;5.73;;;;;;;;;;5068383;28;20069;-59
2024/01/12 05:07:11;;;;;;;15.47;5.83;;;;;;;;;;5069821;28;20024;-59
2024/01/12 05:09:36;;;;;;;13.35;5.20;;;;;;;;;;5069964;28;20110;-59
2024/01/12 05:12:04;;;;;;;14.02;5.25;;;;;;;;;;5070109;28;20033;-59
2024/01/12 05:14:29;;;;;;;15.98;5.78;;;;;;;;;;5064575;28;20036;-58
2024/01/12 05:16:55;;;;;;;13.60;5.50;;;;;;;;;;5068799;28;20107;-58
2024/01/12 05:19:20;;;;;;;15.60;5.80;;;;;;;;;;5063581;28;20024;-56
2024/01/12 05:21:45;;;;;;;15.18;5.38;;;;;;;;;;5062495;28;20035;-56
2024/01/12 05:24:10;;;;;;;13.70;5.37;;;;;;;;;;5067118;28;20032;-57
2024/01/12 05:26:36;;;;;;;17.00;6.03;;;;;;;;;;5066644;28;20432;-56
2024/01/12 05:29:02;;;;;;;16.45;5.75;;;;;;;;;;5063745;28;20028;-56
2024/01/12 05:31:27;;;;;;;15.15;5.88;;;;;;;;;;5060704;28;20021;-59
2024/01/12 05:33:52;;;;;;;15.30;5.60;;;;;;;;;;5066054;28;20573;-57
2024/01/12 05:36:17;;;;;;;15.23;5.47;;;;;;;;;;5058277;28;20028;-56
2024/01/12 05:38:43;;;;;;;14.73;4.85;;;;;;;;;;5059491;28;20470;-57
2024/01/12 05:41:08;;;;;;;14.80;5.53;;;;;;;;;;5051985;28;20090;-57
2024/01/12 05:43:33;;;;;;;13.50;5.50;;;;;;;;;;5059870;28;20056;-57
2024/01/12 05:45:59;;;;;;;15.53;5.60;;;;;;;;;;5066608;28;20024;-58
2024/01/12 05:48:24;;;;;;;14.93;5.07;;;;;;;;;;5067855;28;20020;-57
2024/01/12 05:50:49;;;;;;;14.40;5.40;;;;;;;;;;5064637;28;20753;-58
2024/01/12 05:53:16;;;;;;;13.32;5.10;;;;;;;;;;5053771;28;20063;-58
2024/01/12 05:55:42;;;;;;;13.55;5.30;;;;;;;;;;5055421;28;20112;-57
2024/01/12 05:58:07;;;;;;;13.23;4.95;;;;;;;;;;5053447;28;20116;-57
2024/01/12 06:00:32;;;;;;;14.82;5.22;;;;;;;;;;5063686;28;20023;-58
2024/01/12 06:02:58;;;;;;;15.27;5.10;;;;;;;;;;5069570;28;20028;-58
2024/01/12 06:05:23;;;;;;;14.25;5.00;;;;;;;;;;5067683;28;20021;-58
2024/01/12 06:07:48;;;;;;;12.27;4.83;;;;;;;;;;5060844;28;20024;-58
2024/01/12 06:10:14;;;;;;;12.73;4.77;;;;;;;;;;5063433;28;20060;-56
2024/01/12 06:12:39;;;;;;;13.13;4.78;;;;;;;;;;5067530;28;20453;-57
2024/01/12 06:15:05;;;;;;;13.83;4.47;;;;;;;;;;5065230;28;20746;-57
2024/01/12 06:17:30;;;;;;;12.95;4.68;;;;;;;;;;5056762;28;20032;-58
2024/01/12 06:19:55;;;;;;;10.87;4.17;;;;;;;;;;5070963;28;20028;-57
2024/01/12 06:22:20;;;;;;;14.75;5.20;;;;;;;;;;5086085;28;20521;-57
2024/01/12 06:24:45;;;;;;;12.68;4.85;;;;;;;;;;5074727;28;20395;-57
2024/01/12 06:27:10;;;;;;;11.70;4.37;;;;;;;;;;5056175;28;20027;-59
2024/01/12 06:29:36;;;;;;;11.60;4.10;;;;;;;;;;5055155;28;20473;-58
2024/01/12 06:32:03;;;;;;;12.68;4.70;;;;;;;;;;5053589;28;20049;-57
2024/01/12 06:34:28;;;;;;;12.68;4.50;;;;;;;;;;5053405;28;20025;-59
2024/01/12 06:36:53;;;;;;;11.07;3.92;;;;;;;;;;5053855;28;20020;-57
2024/01/12 06:39:18;;;;;;;11.63;4.32;;;;;;;;;;5071631;28;20025;-57
2024/01/12 06:41:46;;;;;;;13.90;4.30;;;;;;;;;;5074893;28;20028;-58
2024/01/12 06:44:11;;;;;;;12.02;4.00;;;;;;;;;;5069275;28;20582;-58
2024/01/12 06:46:40;;;;;;;10.63;4.43;;;;;;;;;;5064964;28;20103;-57
2024/01/12 06:49:05;;;;;;;11.98;4.28;;;;;;;;;;5063868;28;20016;-58
2024/01/12 06:51:30;;;;;;;9.00;3.72;;;;;;;;;;5062729;28;20020;-58
2024/01/12 06:53:56;;;;;;;11.30;4.15;;;;;;;;;;5059236;28;20025;-58
2024/01/12 06:56:21;;;;;;;10.70;3.77;;;;;;;;;;5062554;28;20468;-57
2024/01/12 06:58:46;;;;;;;12.03;4.37;;;;;;;;;;5052830;28;20116;-58
2024/01/12 07:01:11;;;;;;;10.10;3.97;;;;;;;;;;5060064;28;20481;-57
2024/01/12 07:03:36;;;;;;;9.40;3.80;;;;;;;;;;5053699;28;20033;-58
2024/01/12 07:06:03;;;;;;;9.33;3.50;;;;;;;;;;5064277;28;20024;-58
2024/01/12 07:08:28;;;;;;;10.90;3.55;;;;;;;;;;5069953;28;20501;-58
2024/01/12 07:10:53;;;;;;;10.45;3.85;;;;;;;;;;5067431;28;20029;-58
2024/01/12 07:13:18;;;;;;;9.45;3.42;;;;;;;;;;5076400;28;20830;-58
2024/01/12 07:15:43;;;;;;;9.93;3.80;;;;;;;;;;5069844;28;20055;-57
2024/01/12 07:18:08;;;;;;;10.20;3.87;;;;;;;;;;5071448;28;20059;-58
2024/01/12 07:20:34;;;;;;;10.30;3.90;;;;;;;;;;5072936;28;20016;-57
2024/01/12 07:22:59;;;;;;;10.35;4.15;;;;;;;;;;5065031;28;20100;-58
2024/01/12 07:25:24;;;;;;;10.07;3.50;;;;;;;;;;5072140;28;20032;-57
2024/01/12 07:27:49;;;;;;;8.33;3.47;;;;;;;;;;5072427;28;20407;-57
2024/01/12 07:30:16;;;;;;;8.67;3.40;;;;;;;;;;5072729;28;20024;-56
2024/01/12 07:32:41;;;;;;;11.40;4.00;;;;;;;;;;5072107;28;20020;-57
2024/01/12 07:35:06;;;;;;;8.80;3.65;;;;;;;;;;5066412;28;20591;-56
2024/01/12 07:37:31;;;;;;;10.57;4.00;;;;;;;;;;5071881;28;20016;-56
2024/01/12 07:39:57;;;;;;;10.03;3.93;;;;;;;;;;5055446;28;20044;-56
2024/01/12 07:42:22;;;;;;;9.63;3.58;;;;;;;;;;5056257;28;20048;-57
2024/01/12 07:44:47;;;;;;;10.43;3.50;;;;;;;;;;5070367;28;20035;-57
2024/01/12 07:47:12;;;;;;;11.87;3.80;;;;;;;;;;5053367;28;20103;-57
2024/01/12 07:49:37;;;;;;;9.75;3.40;;;;;;;;;;5062976;28;20058;-57
2024/01/12 07:52:02;;;;;;;10.70;3.90;;;;;;;;;;5071258;28;20017;-58
2024/01/12 07:54:28;;;;;;;9.50;3.33;;;;;;;;;;5069593;28;20020;-56
2024/01/12 07:56:54;;;;;;;10.30;3.80;;;;;;;;;;5072451;28;20031;-57
2024/01/12 07:59:19;;;;;;;10.23;3.67;;;;;;;;;;5059198;28;20044;-58
2024/01/12 08:01:45;;;;;;;8.70;3.50;;;;;;;;;;5071382;28;20410;-57
2024/01/12 08:04:10;;;;;;;9.63;3.55;;;;;;;;;;5057029;28;20041;-57
2024/01/12 08:06:35;;;;;;;9.90;3.80;;;;;;;;;;5063581;28;20035;-57
2024/01/12 08:09:00;;;;;;;10.05;3.85;;;;;;;;;;5072666;28;20012;-57
2024/01/12 08:11:25;;;;;;;10.68;3.80;;;;;;;;;;5073229;28;20025;-57
2024/01/12 08:13:52;;;;;;;11.70;4.40;;;;;;;;;;5050015;28;20492;-59
2024/01/12 08:16:17;;;;;;;9.13;3.80;;;;;;;;;;5057681;28;20024;-58
2024/01/12 08:18:42;;;;;;;9.00;4.00;;;;;;;;;;5068901;28;20388;-57
2024/01/12 08:21:07;;;;;;;10.50;4.13;;;;;;;;;;5071247;28;20430;-58
2024/01/12 08:23:33;;;;;;;9.50;3.47;;;;;;;;;;5070352;28;20020;-58
2024/01/12 08:25:58;;;;;;;10.48;4.22;;;;;;;;;;5072299;28;20020;-57
2024/01/12 08:28:23;;;;;;;10.52;3.83;;;;;;;;;;5066082;28;20020;-58
2024/01/12 08:30:48;;;;;;;8.80;3.75;;;;;;;;;;5069914;28;20070;-57
2024/01/12 08:33:13;;;;;;;10.25;4.05;;;;;;;;;;5071391;28;20521;-57
2024/01/12 08:35:39;;;;;;;13.32;4.55;;;;;;;;;;5071440;28;20024;-58
2024/01/12 08:38:04;;;;;;;11.37;4.40;;;;;;;;;;5064898;28;20016;-57
2024/01/12 08:40:29;;;;;;;10.50;4.03;;;;;;;;;;5071253;28;20021;-58
2024/01/12 08:42:56;;;;;;;11.93;4.17;;;;;;;;;;5055676;28;20039;-58
2024/01/12 08:45:21;;;;;;;10.43;4.05;;;;;;;;;;5072046;28;20503;-57
2024/01/12 08:47:46;;;;;;;11.32;4.22;;;;;;;;;;5072689;28;20020;-57
2024/01/12 08:50:11;;;;;;;10.93;4.32;;;;;;;;;;5072490;28;20714;-58
2024/01/12 08:52:36;;;;;;;11.85;4.30;;;;;;;;;;5064665;28;20028;-58
2024/01/12 08:55:04;;;;;;;11.32;3.92;;;;;;;;;;5071526;28;20044;-58
2024/01/12 08:57:29;;;;;;;11.50;4.75;;;;;;;;;;5070881;28;20054;-58
2024/01/12 08:59:54;;;;;;;11.15;4.50;;;;;;;;;;5071163;28;20059;-58
2024/01/12 09:02:19;;;;;;;11.35;4.30;;;;;;;;;;5065764;28;20021;-57
2024/01/12 09:04:44;;;;;;;10.93;3.95;;;;;;;;;;5062125;28;20028;-58
2024/01/12 09:07:10;;;;;;;14.03;4.73;;;;;;;;;;5064988;28;20097;-58
2024/01/12 09:09:35;;;;;;;11.35;4.40;;;;;;;;;;5049722;28;20025;-58
2024/01/12 09:12:00;;;;;;;11.27;4.53;;;;;;;;;;5050753;28;20393;-58
2024/01/12 09:14:27;;;;;;;11.32;4.70;;;;;;;;;;5057069;28;20461;-57
2024/01/12 09:16:52;;;;;;;11.02;4.70;;;;;;;;;;5070037;28;20035;-58
2024/01/12 09:19:17;;;;;;;11.95;4.40;;;;;;;;;;5071267;28;20503;-58
2024/01/12 09:21:43;;;;;;;9.73;3.97;;;;;;;;;;5071031;28;20070;-58
2024/01/12 09:24:08;;;;;;;9.98;3.83;;;;;;;;;;5069367;28;20390;-58
2024/01/12 09:26:33;;;;;;;11.02;3.65;;;;;;;;;;5070980;28;20023;-59
2024/01/12 09:28:58;;;;;;;8.32;3.08;;;;;;;;;;5071059;28;20078;-57
2024/01/12 09:31:23;;;;;;;9.80;3.42;;;;;;;;;;5069934;28;20028;-58
2024/01/12 09:33:48;;;;;;;10.63;3.07;;;;;;;;;;5068533;28;20020;-59
2024/01/12 09:36:13;;;;;;;12.27;3.20;;;;;;;;;;5063123;28;20461;-60
2024/01/12 09:38:39;;;;;;;8.70;3.00;;;;;;;;;;5061919;28;20017;-58
2024/01/12 09:41:07;;;;;;;9.25;3.25;;;;;;;;;;5072584;28;20082;-58
2024/01/12 09:43:35;;;;;;;11.20;3.40;;;;;;;;;;5073853;28;20342;-59
2024/01/12 09:46:03;;;;;;;8.18;2.58;;;;;;;;;;5074491;28;20475;-57
2024/01/12 09:48:29;;;;;;;8.00;3.20;;;;;;;;;;5069024;28;20024;-59
2024/01/12 09:50:55;;;;;;;7.97;3.00;;;;;;;;;;5073422;28;20020;-60
2024/01/12 09:53:20;;;;;;;9.88;2.65;;;;;;;;;;5073428;28;20012;-60
2024/01/12 09:55:45;;;;;;;9.20;3.20;;;;;;;;;;5074084;28;20111;-60
2024/01/12 09:58:11;;;;;;;7.03;2.67;;;;;;;;;;5070040;28;20020;-60
2024/01/12 10:00:37;;;;;;;9.03;3.23;;;;;;;;;;5073426;28;20047;-60
2024/01/12 10:03:03;;;;;;;10.85;3.42;;;;;;;;;;5072776;28;20107;-59
2024/01/12 10:05:28;;;;;;;12.55;3.10;;;;;;;;;;5060926;28;20120;-60
2024/01/12 10:07:53;;;;;;;11.23;3.47;;;;;;;;;;5056729;28;20021;-59
2024/01/12 10:10:18;;;;;;;7.97;3.13;;;;;;;;;;5073406;28;20456;-59
2024/01/12 10:12:47;;;;;;;8.98;3.33;;;;;;;;;;5073285;28;20369;-58
2024/01/12 10:15:12;;;;;;;8.50;2.90;;;;;;;;;;5065404;28;20107;-60
2024/01/12 10:17:38;;;;;;;8.50;2.85;;;;;;;;;;5072360;28;20104;-60
2024/01/12 10:20:05;;;;;;;7.83;3.30;;;;;;;;;;5066359;28;20017;-59
2024/01/12 10:22:31;;;;;;;8.40;3.30;;;;;;;;;;5073320;28;20051;-60
2024/01/12 10:25:00;;;;;;;8.93;3.50;;;;;;;;;;5073683;28;20500;-60
2024/01/12 10:27:26;;;;;;;9.30;3.30;;;;;;;;;;5073563;28;20048;-60
2024/01/12 10:29:51;;;;;;;9.35;3.65;;;;;;;;;;5062809;28;20501;-59
2024/01/12 10:32:19;;;;;;;9.43;3.13;;;;;;;;;;5068390;28;20043;-60
2024/01/12 10:34:46;;;;;;;11.32;3.63;;;;;;;;;;5073303;28;20055;-59
2024/01/12 10:37:12;;;;;;;7.85;3.22;;;;;;;;;;5072981;28;20013;-59
2024/01/12 10:39:39;;;;;;;11.27;3.95;;;;;;;;;;5072626;28;20467;-59
2024/01/12 10:42:06;;;;;;;9.65;3.65;;;;;;;;;;5066719;28;20016;-59
2024/01/12 10:44:33;;;;;;;11.13;4.30;;;;;;;;;;5072555;28;20021;-59
2024/01/12 10:47:03;;;;;;;11.75;4.38;;;;;;;;;;5073565;28;20021;-58
2024/01/12 10:49:31;;;;;;;10.98;4.25;;;;;;;;;;5072093;28;20055;-59
2024/01/12 10:52:15;;;;;;;14.10;4.32;;;;;;;;;;5072227;28;20487;-60
2024/01/12 10:54:43;;;;;;;9.30;4.10;;;;;;;;;;5074715;28;20028;-60
2024/01/12 10:57:09;;;;;;;11.05;4.43;;;;;;;;;;5073737;28;20111;-60
2024/01/12 10:59:34;;;;;;;12.55;4.68;;;;;;;;;;5072661;28;20400;-61
2024/01/12 11:02:00;;;;;;;13.43;5.13;;;;;;;;;;5070196;28;20029;-59
2024/01/12 11:04:26;;;;;;;12.63;5.10;;;;;;;;;;5072115;28;20468;-58
2024/01/12 11:06:55;;;;;;;14.70;5.10;;;;;;;;;;5066260;28;20028;-58
2024/01/12 11:09:21;;;;;;;13.68;5.03;;;;;;;;;;5072276;28;20019;-59
2024/01/12 11:11:56;;;;;;;13.38;5.28;;;;;;;;;;5056877;28;20025;-59
2024/01/12 11:14:22;;;;;;;14.93;5.13;;;;;;;;;;5051600;28;20032;-60
2024/01/12 11:16:47;;;;;;;14.00;5.60;;;;;;;;;;5062209;28;20035;-59
2024/01/12 11:19:13;;;;;;;11.80;4.70;;;;;;;;;;5072028;28;20013;-59
2024/01/12 11:21:40;;;;;;;16.17;5.55;;;;;;;;;;5071951;28;20013;-58
2024/01/12 11:24:06;;;;;;;;;;;;;;;;;;5072432;28;20029;-60
2024/01/12 11:26:31;;;;;;;11.05;4.68;;;;;;;;;;5066270;28;20026;-60
2024/01/12 11:28:58;;;;;;;12.65;5.30;;;;;;;;;;5062681;28;20444;-60
2024/01/12 11:31:24;;;;;;;14.45;5.55;;;;;;;;;;5071124;28;20028;-60
2024/01/12 11:33:53;;;;;;;13.75;5.28;;;;;;;;;;5072163;28;20035;-59
2024/01/12 11:36:18;;;;;;;13.88;4.60;;;;;;;;;;5072103;28;20066;-57
2024/01/12 11:38:43;;;;;;;9.95;3.88;;;;;;;;;;5068929;28;20528;-58
2024/01/12 11:41:09;;;;;;;10.53;4.17;;;;;;;;;;5071090;28;20020;-57
2024/01/12 11:43:34;;;;;;;12.10;4.72;;;;;;;;;;5070507;28;20489;-58
2024/01/12 11:46:00;;;;;;;12.40;4.63;;;;;;;;;;5063819;28;20102;-58
2024/01/12 11:48:25;;;;;;;11.83;4.20;;;;;;;;;;5051213;28;20028;-59
2024/01/12 11:50:51;;;;;;;12.23;4.75;;;;;;;;;;5064465;28;20021;-60
2024/01/12 11:53:16;;;;;;;9.77;3.40;;;;;;;;;;5067345;28;20037;-58
2024/01/12 11:55:41;;;;;;;13.32;4.07;;;;;;;;;;5071297;28;20551;-60
2024/01/12 11:58:06;;;;;;;9.97;3.77;;;;;;;;;;5070425;28;20024;-59
2024/01/12 12:00:31;;;;;;;11.52;4.10;;;;;;;;;;5067848;28;20112;-58
2024/01/12 12:02:57;;;;;;;10.30;3.33;;;;;;;;;;5070399;28;20029;-56
2024/01/12 12:05:22;;;;;;;11.65;3.78;;;;;;;;;;5071302;28;20056;-59
2024/01/12 12:07:47;;;;;;;11.18;3.92;;;;;;;;;;5057472;28;20095;-58
2024/01/12 12:10:12;;;;;;;12.20;3.40;;;;;;;;;;5055370;28;20028;-60
2024/01/12 12:12:37;;;;;;;10.93;4.10;;;;;;;;;;5069192;28;20451;-59
2024/01/12 12:15:07;;;;;;;10.48;3.67;;;;;;;;;;5070717;28;20052;-58
2024/01/12 12:17:34;;;;;;;9.13;3.60;;;;;;;;;;5070953;28;20031;-58
2024/01/12 12:19:59;;;;;;;;;;;;;;;;;;5069281;28;20107;-59
2024/01/12 12:22:24;;;;;;;11.98;4.13;;;;;;;;;;5070339;28;19951;-60
2024/01/12 12:24:49;;;;;;;13.17;4.67;;;;;;;;;;5070579;28;20028;-60
2024/01/12 12:27:15;;;;;;;14.88;4.43;;;;;;;;;;5071090;28;20091;-59
2024/01/12 12:29:40;;;;;;;13.27;4.68;;;;;;;;;;5069102;28;20028;-59
2024/01/12 12:32:09;;;;;;;10.88;4.40;;;;;;;;;;5071222;28;20028;-58
2024/01/12 12:34:34;;;;;;;11.63;4.75;;;;;;;;;;5055120;28;20032;-60
2024/01/12 12:36:59;;;;;;;14.50;5.15;;;;;;;;;;5051722;28;20025;-58
2024/01/12 12:39:24;;;;;;;12.85;4.43;;;;;;;;;;5051255;28;20063;-60
2024/01/12 12:41:50;;;;;;;14.10;5.00;;;;;;;;;;5059868;28;20035;-60
2024/01/12 12:44:15;;;;;;;13.70;5.28;;;;;;;;;;5069045;28;20082;-60
2024/01/12 12:46:40;;;;;;;11.70;5.07;;;;;;;;;;5065517;28;20020;-60
2024/01/12 12:49:09;;;;;;;12.40;4.93;;;;;;;;;;5070912;28;20024;-59
2024/01/12 12:51:34;;;;;;;13.88;5.63;;;;;;;;;;5061360;28;20120;-59
2024/01/12 12:53:59;;;;;;;14.17;4.63;;;;;;;;;;5070806;28;20536;-58
2024/01/12 12:56:25;;;;;;;13.27;4.97;;;;;;;;;;5070825;28;20025;-59
2024/01/12 12:58:50;;;;;;;13.70;4.90;;;;;;;;;;5070720;28;20016;-57
2024/01/12 13:01:16;;;;;;;12.85;4.90;;;;;;;;;;5061915;28;20017;-58
2024/01/12 13:03:41;;;;;;;13.75;5.30;;;;;;;;;;5069954;28;20393;-59
2024/01/12 13:06:06;;;;;;;12.68;4.75;;;;;;;;;;5070422;28;20028;-58
2024/01/12 13:08:31;;;;;;;13.85;5.18;;;;;;;;;;5061028;28;20028;-58
2024/01/12 13:10:56;;;;;;;14.75;5.30;;;;;;;;;;5068533;28;20443;-59
2024/01/12 13:13:21;;;;;;;14.80;5.47;;;;;;;;;;5070271;28;20142;-59
2024/01/12 13:15:46;;;;;;;13.43;5.00;;;;;;;;;;5070691;28;20032;-59
2024/01/12 13:18:12;;;;;;;12.85;4.38;;;;;;;;;;5068547;28;20491;-59
2024/01/12 13:20:37;;;;;;;16.02;5.43;;;;;;;;;;5069869;28;20053;-60
2024/01/12 13:23:02;;;;;;;13.93;4.97;;;;;;;;;;5069989;28;20028;-59
2024/01/12 13:25:27;;;;;;;12.87;4.40;;;;;;;;;;5070198;28;20037;-58
2024/01/12 13:27:52;;;;;;;11.97;4.13;;;;;;;;;;5067552;28;20443;-59
2024/01/12 13:30:17;;;;;;;13.52;4.85;;;;;;;;;;5069083;28;20110;-58
2024/01/12 13:32:43;;;;;;;12.32;4.05;;;;;;;;;;5069931;28;20013;-58
2024/01/12 13:35:08;;;;;;;12.68;5.00;;;;;;;;;;5070459;28;20067;-58
2024/01/12 13:37:34;;;;;;;13.80;4.95;;;;;;;;;;5066586;28;20329;-57
2024/01/12 13:39:59;;;;;;;13.15;4.90;;;;;;;;;;5069360;28;20427;-61
2024/01/12 13:42:24;;;;;;;15.47;5.03;;;;;;;;;;5069765;28;20040;-60
2024/01/12 13:44:49;;;;;;;12.97;4.83;;;;;;;;;;5070458;28;20040;-58
2024/01/12 13:47:14;;;;;;;12.87;4.83;;;;;;;;;;5070396;28;20054;-59
2024/01/12 13:49:40;;;;;;;16.07;4.63;;;;;;;;;;5065683;28;20025;-60
2024/01/12 13:52:05;;;;;;;12.68;4.93;;;;;;;;;;5057267;28;20396;-60
2024/01/12 13:54:30;;;;;;;13.83;4.77;;;;;;;;;;5068946;28;20527;-59
2024/01/12 13:56:55;;;;;;;12.38;4.35;;;;;;;;;;5065847;28;20068;-59
2024/01/12 13:59:20;;;;;;;14.18;5.15;;;;;;;;;;5070179;28;20087;-59
2024/01/12 14:01:46;;;;;;;14.80;5.07;;;;;;;;;;5069426;28;20064;-59
2024/01/12 14:04:11;;;;;;;14.88;4.97;;;;;;;;;;5069679;28;20016;-59
2024/01/12 14:06:37;;;;;;;16.98;5.38;;;;;;;;;;5071273;28;20024;-61
2024/01/12 14:09:04;;;;;;;14.68;5.60;;;;;;;;;;5064840;28;20316;-60
2024/01/12 14:11:30;;;;;;;14.77;5.57;;;;;;;;;;5074866;28;20028;-58
2024/01/12 14:13:56;;;;;;;13.27;5.43;;;;;;;;;;5069034;28;20157;-58
2024/01/12 14:16:21;;;;;;;16.33;6.07;;;;;;;;;;5078345;28;20095;-58
2024/01/12 14:18:46;;;;;;;16.20;5.28;;;;;;;;;;5069492;28;20557;-58
2024/01/12 14:21:12;;;;;;;15.00;5.30;;;;;;;;;;5074105;28;20014;-59
2024/01/12 14:23:37;;;;;;;14.90;5.50;;;;;;;;;;5072705;28;20017;-59